sensor_id;sensor_type;location;lat;lon;timestamp;pressure;altitude;pressure_sealevel;temperature;humidity
77749;BME280;66938;52.084;5.228;2023-04-29T00:00:22;101613.0;;;10.75;79.2
77749;BME280;66938;52.084;5.228;2023-04-29T00:03:34;101616.0;;;10.74;79.08
77749;BME280;66938;52.084;5.228;2023-04-29T00:05:11;101615.0;;;10.75;79.2
77749;BME280;66938;52.084;5.228;2023-04-29T00:06:47;101624.0;;;10.76;79.13
77749;BME280;66938;52.084;5.228;2023-04-29T00:09:59;101624.0;;;10.75;79.33
77749;BME280;66938;52.084;5.228;2023-04-29T00:11:35;101624.0;;;10.75;79.27
77749;BME280;66938;52.084;5.228;2023-04-29T00:13:11;101621.0;;;10.7;78.95
77749;BME280;66938;52.084;5.228;2023-04-29T00:16:24;101631.0;;;10.7;79.44
77749;BME280;66938;52.084;5.228;2023-04-29T00:18:00;101627.0;;;10.74;79.59
77749;BME280;66938;52.084;5.228;2023-04-29T00:19:36;101628.0;;;10.76;79.12
77749;BME280;66938;52.084;5.228;2023-04-29T00:22:48;101628.0;;;10.7;79.05
77749;BME280;66938;52.084;5.228;2023-04-29T00:24:24;101631.0;;;10.72;79.02
77749;BME280;66938;52.084;5.228;2023-04-29T00:26:00;101632.0;;;10.72;79.19
77749;BME280;66938;52.084;5.228;2023-04-29T00:27:37;101636.0;;;10.75;78.88
77749;BME280;66938;52.084;5.228;2023-04-29T00:30:49;101637.0;;;10.73;78.66
77749;BME280;66938;52.084;5.228;2023-04-29T00:32:25;101639.0;;;10.71;78.81
77749;BME280;66938;52.084;5.228;2023-04-29T00:34:01;101646.0;;;10.75;78.53
77749;BME280;66938;52.084;5.228;2023-04-29T00:37:13;101642.0;;;10.75;78.69
77749;BME280;66938;52.084;5.228;2023-04-29T00:38:49;101648.0;;;10.76;78.5
77749;BME280;66938;52.084;5.228;2023-04-29T00:40:26;101642.0;;;10.71;78.11
77749;BME280;66938;52.084;5.228;2023-04-29T00:43:39;101644.0;;;10.65;78.8
77749;BME280;66938;52.084;5.228;2023-04-29T00:45:15;101646.0;;;10.71;78.55
77749;BME280;66938;52.084;5.228;2023-04-29T00:46:51;101643.0;;;10.76;78.27
77749;BME280;66938;52.084;5.228;2023-04-29T00:48:27;101648.0;;;10.77;78.48
77749;BME280;66938;52.084;5.228;2023-04-29T00:51:43;101655.0;;;10.77;78.41
77749;BME280;66938;52.084;5.228;2023-04-29T00:53:20;101655.0;;;10.79;78.25
77749;BME280;66938;52.084;5.228;2023-04-29T00:54:56;101655.0;;;10.73;77.88
77749;BME280;66938;52.084;5.228;2023-04-29T00:58:11;101655.0;;;10.77;77.88
77749;BME280;66938;52.084;5.228;2023-04-29T00:59:47;101655.0;;;10.73;77.94
77749;BME280;66938;52.084;5.228;2023-04-29T01:01:24;101656.0;;;10.7;78.05
77749;BME280;66938;52.084;5.228;2023-04-29T01:04:36;101655.0;;;10.74;77.94
77749;BME280;66938;52.084;5.228;2023-04-29T01:08:15;101657.0;;;10.75;77.88
77749;BME280;66938;52.084;5.228;2023-04-29T01:10:08;101664.0;;;10.75;77.77
77749;BME280;66938;52.084;5.228;2023-04-29T01:11:54;101662.0;;;10.72;77.8
77749;BME280;66938;52.084;5.228;2023-04-29T01:13:42;101666.0;;;10.66;77.52
77749;BME280;66938;52.084;5.228;2023-04-29T01:17:05;101674.0;;;10.68;77.5
77749;BME280;66938;52.084;5.228;2023-04-29T01:18:49;101682.0;;;10.69;77.77
77749;BME280;66938;52.084;5.228;2023-04-29T01:20:29;101678.0;;;10.68;77.5
77749;BME280;66938;52.084;5.228;2023-04-29T01:22:05;101678.0;;;10.68;77.5
77749;BME280;66938;52.084;5.228;2023-04-29T01:25:18;101680.0;;;10.7;77.45
77749;BME280;66938;52.084;5.228;2023-04-29T01:26:58;101683.0;;;10.7;77.66
77749;BME280;66938;52.084;5.228;2023-04-29T01:28:51;101680.0;;;10.67;77.98
77749;BME280;66938;52.084;5.228;2023-04-29T01:30:33;101685.0;;;10.74;77.8
77749;BME280;66938;52.084;5.228;2023-04-29T01:34:07;101686.0;;;10.72;77.77
77749;BME280;66938;52.084;5.228;2023-04-29T01:35:52;101686.0;;;10.7;77.94
77749;BME280;66938;52.084;5.228;2023-04-29T01:37:43;101686.0;;;10.7;77.53
77749;BME280;66938;52.084;5.228;2023-04-29T01:39:32;101688.0;;;10.68;77.14
77749;BME280;66938;52.084;5.228;2023-04-29T01:41:15;101690.0;;;10.6;77.74
77749;BME280;66938;52.084;5.228;2023-04-29T01:42:59;101694.0;;;10.65;77.41
77749;BME280;66938;52.084;5.228;2023-04-29T01:46:16;101690.0;;;10.64;77.25
77749;BME280;66938;52.084;5.228;2023-04-29T01:47:53;101692.0;;;10.63;77.36
77749;BME280;66938;52.084;5.228;2023-04-29T01:49:29;101693.0;;;10.63;77.33
77749;BME280;66938;52.084;5.228;2023-04-29T01:52:41;101700.0;;;10.65;77.22
77749;BME280;66938;52.084;5.228;2023-04-29T01:54:18;101698.0;;;10.63;77.37
77749;BME280;66938;52.084;5.228;2023-04-29T01:55:54;101697.0;;;10.65;77.72
77749;BME280;66938;52.084;5.228;2023-04-29T01:57:30;101697.0;;;10.67;77.36
77749;BME280;66938;52.084;5.228;2023-04-29T02:00:42;101699.0;;;10.7;77.39
77749;BME280;66938;52.084;5.228;2023-04-29T02:02:18;101699.0;;;10.72;77.69
77749;BME280;66938;52.084;5.228;2023-04-29T02:03:54;101700.0;;;10.75;77.38
77749;BME280;66938;52.084;5.228;2023-04-29T02:07:06;101702.0;;;10.76;77.19
77749;BME280;66938;52.084;5.228;2023-04-29T02:08:43;101700.0;;;10.76;77.33
77749;BME280;66938;52.084;5.228;2023-04-29T02:10:19;101701.0;;;10.77;77.37
77749;BME280;66938;52.084;5.228;2023-04-29T02:13:31;101708.0;;;10.76;76.95
77749;BME280;66938;52.084;5.228;2023-04-29T02:15:08;101708.0;;;10.74;76.94
77749;BME280;66938;52.084;5.228;2023-04-29T02:16:43;101706.0;;;10.71;77.08
77749;BME280;66938;52.084;5.228;2023-04-29T02:19:55;101712.0;;;10.75;77.22
77749;BME280;66938;52.084;5.228;2023-04-29T02:21:30;101717.0;;;10.76;77.16
77749;BME280;66938;52.084;5.228;2023-04-29T02:23:06;101715.0;;;10.77;77.08
77749;BME280;66938;52.084;5.228;2023-04-29T02:24:43;101722.0;;;10.76;76.86
77749;BME280;66938;52.084;5.228;2023-04-29T02:27:55;101728.0;;;10.78;76.97
77749;BME280;66938;52.084;5.228;2023-04-29T02:29:32;101724.0;;;10.8;76.95
77749;BME280;66938;52.084;5.228;2023-04-29T02:31:08;101731.0;;;10.78;77.05
77749;BME280;66938;52.084;5.228;2023-04-29T02:34:20;101732.0;;;10.76;76.83
77749;BME280;66938;52.084;5.228;2023-04-29T02:35:56;101736.0;;;10.77;76.83
77749;BME280;66938;52.084;5.228;2023-04-29T02:37:32;101736.0;;;10.81;76.94
77749;BME280;66938;52.084;5.228;2023-04-29T02:40:45;101740.0;;;10.78;76.66
77749;BME280;66938;52.084;5.228;2023-04-29T02:42:21;101745.0;;;10.78;76.83
77749;BME280;66938;52.084;5.228;2023-04-29T02:43:58;101745.0;;;10.76;77.05
77749;BME280;66938;52.084;5.228;2023-04-29T02:45:34;101741.0;;;10.79;76.83
77749;BME280;66938;52.084;5.228;2023-04-29T02:48:46;101744.0;;;10.79;76.84
77749;BME280;66938;52.084;5.228;2023-04-29T02:50:22;101747.0;;;10.78;76.66
77749;BME280;66938;52.084;5.228;2023-04-29T02:51:58;101746.0;;;10.78;76.88
77749;BME280;66938;52.084;5.228;2023-04-29T02:55:10;101752.0;;;10.78;76.52
77749;BME280;66938;52.084;5.228;2023-04-29T02:56:46;101756.0;;;10.78;76.92
77749;BME280;66938;52.084;5.228;2023-04-29T02:58:23;101757.0;;;10.74;76.81
77749;BME280;66938;52.084;5.228;2023-04-29T03:01:35;101761.0;;;10.76;76.94
77749;BME280;66938;52.084;5.228;2023-04-29T03:03:12;101759.0;;;10.81;76.5
77749;BME280;66938;52.084;5.228;2023-04-29T03:04:48;101763.0;;;10.8;76.37
77749;BME280;66938;52.084;5.228;2023-04-29T03:08:00;101768.0;;;10.74;76.81
77749;BME280;66938;52.084;5.228;2023-04-29T03:09:36;101772.0;;;10.81;76.61
77749;BME280;66938;52.084;5.228;2023-04-29T03:11:13;101776.0;;;10.77;76.72
77749;BME280;66938;52.084;5.228;2023-04-29T03:12:49;101778.0;;;10.77;76.69
77749;BME280;66938;52.084;5.228;2023-04-29T03:16:01;101784.0;;;10.77;76.81
77749;BME280;66938;52.084;5.228;2023-04-29T03:17:37;101783.0;;;10.8;77.14
77749;BME280;66938;52.084;5.228;2023-04-29T03:19:13;101785.0;;;10.82;77.22
77749;BME280;66938;52.084;5.228;2023-04-29T03:22:25;101780.0;;;10.81;77.16
77749;BME280;66938;52.084;5.228;2023-04-29T03:24:02;101780.0;;;10.83;76.77
77749;BME280;66938;52.084;5.228;2023-04-29T03:25:38;101780.0;;;10.8;76.97
77749;BME280;66938;52.084;5.228;2023-04-29T03:28:50;101783.0;;;10.83;77.02
77749;BME280;66938;52.084;5.228;2023-04-29T03:30:26;101784.0;;;10.85;76.94
77749;BME280;66938;52.084;5.228;2023-04-29T03:32:02;101786.0;;;10.86;76.8
77749;BME280;66938;52.084;5.228;2023-04-29T03:35:14;101788.0;;;10.88;76.83
77749;BME280;66938;52.084;5.228;2023-04-29T03:36:51;101788.0;;;10.89;76.89
77749;BME280;66938;52.084;5.228;2023-04-29T03:38:26;101792.0;;;10.9;76.83
77749;BME280;66938;52.084;5.228;2023-04-29T03:40:03;101791.0;;;10.89;76.97
77749;BME280;66938;52.084;5.228;2023-04-29T03:43:16;101796.0;;;10.93;76.72
77749;BME280;66938;52.084;5.228;2023-04-29T03:44:52;101798.0;;;10.93;76.72
77749;BME280;66938;52.084;5.228;2023-04-29T03:46:28;101797.0;;;10.92;76.92
77749;BME280;66938;52.084;5.228;2023-04-29T03:49:41;101798.0;;;10.9;76.66
77749;BME280;66938;52.084;5.228;2023-04-29T03:51:17;101800.0;;;10.95;76.67
77749;BME280;66938;52.084;5.228;2023-04-29T03:52:54;101805.0;;;10.91;77.05
77749;BME280;66938;52.084;5.228;2023-04-29T03:56:06;101805.0;;;10.94;76.81
77749;BME280;66938;52.084;5.228;2023-04-29T03:57:42;101805.0;;;10.92;77.3
77749;BME280;66938;52.084;5.228;2023-04-29T03:59:18;101801.0;;;10.89;77.55
77749;BME280;66938;52.084;5.228;2023-04-29T04:00:54;101799.0;;;10.87;77.74
77749;BME280;66938;52.084;5.228;2023-04-29T04:04:06;101803.0;;;10.9;77.44
77749;BME280;66938;52.084;5.228;2023-04-29T04:05:42;101805.0;;;10.92;77.47
77749;BME280;66938;52.084;5.228;2023-04-29T04:07:19;101812.0;;;10.91;77.64
77749;BME280;66938;52.084;5.228;2023-04-29T04:10:31;101815.0;;;10.87;77.56
77749;BME280;66938;52.084;5.228;2023-04-29T04:12:08;101810.0;;;10.86;77.61
77749;BME280;66938;52.084;5.228;2023-04-29T04:13:44;101811.0;;;10.88;77.52
77749;BME280;66938;52.084;5.228;2023-04-29T04:16:56;101814.0;;;10.86;77.64
77749;BME280;66938;52.084;5.228;2023-04-29T04:18:32;101820.0;;;10.86;77.95
77749;BME280;66938;52.084;5.228;2023-04-29T04:20:09;101820.0;;;10.87;77.58
77749;BME280;66938;52.084;5.228;2023-04-29T04:23:22;101823.0;;;10.88;77.59
77749;BME280;66938;52.084;5.228;2023-04-29T04:24:58;101826.0;;;10.87;77.83
77749;BME280;66938;52.084;5.228;2023-04-29T04:26:34;101832.0;;;10.9;77.73
77749;BME280;66938;52.084;5.228;2023-04-29T04:28:10;101826.0;;;10.93;77.3
77749;BME280;66938;52.084;5.228;2023-04-29T04:31:22;101834.0;;;10.89;77.56
77749;BME280;66938;52.084;5.228;2023-04-29T04:32:59;101839.0;;;10.86;77.55
77749;BME280;66938;52.084;5.228;2023-04-29T04:34:36;101840.0;;;10.85;77.47
77749;BME280;66938;52.084;5.228;2023-04-29T04:37:48;101840.0;;;10.88;77.3
77749;BME280;66938;52.084;5.228;2023-04-29T04:39:24;101844.0;;;10.9;77.28
77749;BME280;66938;52.084;5.228;2023-04-29T04:41:00;101849.0;;;10.89;77.38
77749;BME280;66938;52.084;5.228;2023-04-29T04:44:12;101848.0;;;10.88;77.58
77749;BME280;66938;52.084;5.228;2023-04-29T04:45:49;101846.0;;;10.83;77.95
77749;BME280;66938;52.084;5.228;2023-04-29T04:47:25;101851.0;;;10.83;77.62
77749;BME280;66938;52.084;5.228;2023-04-29T04:49:01;101855.0;;;10.87;77.19
77749;BME280;66938;52.084;5.228;2023-04-29T04:52:13;101865.0;;;10.92;76.8
77749;BME280;66938;52.084;5.228;2023-04-29T04:53:49;101871.0;;;10.92;76.19
77749;BME280;66938;52.084;5.228;2023-04-29T04:55:25;101875.0;;;10.92;76.03
77749;BME280;66938;52.084;5.228;2023-04-29T04:58:38;101871.0;;;10.97;76.05
77749;BME280;66938;52.084;5.228;2023-04-29T05:00:15;101873.0;;;10.97;75.52
77749;BME280;66938;52.084;5.228;2023-04-29T05:01:52;101877.0;;;10.92;76.08
77749;BME280;66938;52.084;5.228;2023-04-29T05:05:04;101881.0;;;10.93;75.89
77749;BME280;66938;52.084;5.228;2023-04-29T05:06:40;101877.0;;;10.98;75.66
77749;BME280;66938;52.084;5.228;2023-04-29T05:08:16;101880.0;;;10.98;75.05
77749;BME280;66938;52.084;5.228;2023-04-29T05:11:28;101881.0;;;11.04;74.44
77749;BME280;66938;52.084;5.228;2023-04-29T05:13:04;101888.0;;;10.93;75.28
77749;BME280;66938;52.084;5.228;2023-04-29T05:14:40;101889.0;;;11.02;75.22
77749;BME280;66938;52.084;5.228;2023-04-29T05:16:17;101886.0;;;11.01;75.42
77749;BME280;66938;52.084;5.228;2023-04-29T05:19:29;101885.0;;;10.99;75.73
77749;BME280;66938;52.084;5.228;2023-04-29T05:21:05;101886.0;;;11.0;75.16
77749;BME280;66938;52.084;5.228;2023-04-29T05:22:41;101894.0;;;10.97;75.36
77749;BME280;66938;52.084;5.228;2023-04-29T05:25:53;101898.0;;;11.0;75.08
77749;BME280;66938;52.084;5.228;2023-04-29T05:27:29;101903.0;;;11.0;75.24
77749;BME280;66938;52.084;5.228;2023-04-29T05:29:06;101905.0;;;11.04;74.86
77749;BME280;66938;52.084;5.228;2023-04-29T05:32:18;101906.0;;;11.03;75.31
77749;BME280;66938;52.084;5.228;2023-04-29T05:33:54;101909.0;;;11.06;75.2
77749;BME280;66938;52.084;5.228;2023-04-29T05:35:30;101912.0;;;11.06;75.44
77749;BME280;66938;52.084;5.228;2023-04-29T05:37:06;101913.0;;;11.13;74.22
77749;BME280;66938;52.084;5.228;2023-04-29T05:40:19;101907.0;;;11.14;74.27
77749;BME280;66938;52.084;5.228;2023-04-29T05:41:56;101911.0;;;11.17;73.39
77749;BME280;66938;52.084;5.228;2023-04-29T05:43:32;101916.0;;;11.18;73.0
77749;BME280;66938;52.084;5.228;2023-04-29T05:46:45;101924.0;;;11.18;72.91
77749;BME280;66938;52.084;5.228;2023-04-29T05:48:21;101925.0;;;11.19;72.94
77749;BME280;66938;52.084;5.228;2023-04-29T05:49:57;101927.0;;;11.21;73.41
77749;BME280;66938;52.084;5.228;2023-04-29T05:53:10;101928.0;;;11.07;74.41
77749;BME280;66938;52.084;5.228;2023-04-29T05:54:46;101930.0;;;11.17;74.02
77749;BME280;66938;52.084;5.228;2023-04-29T05:56:23;101933.0;;;11.22;74.36
77749;BME280;66938;52.084;5.228;2023-04-29T05:59:35;101938.0;;;11.24;74.61
77749;BME280;66938;52.084;5.228;2023-04-29T06:01:11;101940.0;;;11.27;74.73
77749;BME280;66938;52.084;5.228;2023-04-29T06:02:47;101944.0;;;11.23;75.08
77749;BME280;66938;52.084;5.228;2023-04-29T06:04:23;101945.0;;;11.31;75.16
77749;BME280;66938;52.084;5.228;2023-04-29T06:07:38;101949.0;;;11.29;75.91
77749;BME280;66938;52.084;5.228;2023-04-29T06:09:15;101951.0;;;11.3;75.75
77749;BME280;66938;52.084;5.228;2023-04-29T06:10:51;101953.0;;;11.3;75.87
77749;BME280;66938;52.084;5.228;2023-04-29T06:14:03;101960.0;;;11.34;76.2
77749;BME280;66938;52.084;5.228;2023-04-29T06:15:39;101957.0;;;11.42;75.97
77749;BME280;66938;52.084;5.228;2023-04-29T06:17:15;101957.0;;;11.5;75.94
77749;BME280;66938;52.084;5.228;2023-04-29T06:20:28;101960.0;;;11.57;75.64
77749;BME280;66938;52.084;5.228;2023-04-29T06:22:04;101960.0;;;11.65;74.78
77749;BME280;66938;52.084;5.228;2023-04-29T06:23:40;101966.0;;;11.65;75.2
77749;BME280;66938;52.084;5.228;2023-04-29T06:25:16;101964.0;;;11.7;74.66
77749;BME280;66938;52.084;5.228;2023-04-29T06:28:28;101973.0;;;11.78;74.72
77749;BME280;66938;52.084;5.228;2023-04-29T06:30:05;101974.0;;;11.8;74.95
77749;BME280;66938;52.084;5.228;2023-04-29T06:31:42;101977.0;;;11.94;74.47
77749;BME280;66938;52.084;5.228;2023-04-29T06:34:55;101982.0;;;11.92;74.42
77749;BME280;66938;52.084;5.228;2023-04-29T06:36:31;101988.0;;;12.0;73.91
77749;BME280;66938;52.084;5.228;2023-04-29T06:38:07;101987.0;;;11.98;72.62
77749;BME280;66938;52.084;5.228;2023-04-29T06:41:19;101998.0;;;12.03;72.7
77749;BME280;66938;52.084;5.228;2023-04-29T06:42:55;102000.0;;;12.03;72.59
77749;BME280;66938;52.084;5.228;2023-04-29T06:44:31;101998.0;;;12.0;72.3
77749;BME280;66938;52.084;5.228;2023-04-29T06:46:08;102003.0;;;12.05;72.39
77749;BME280;66938;52.084;5.228;2023-04-29T06:49:21;102007.0;;;12.04;72.64
77749;BME280;66938;52.084;5.228;2023-04-29T06:50:57;102005.0;;;12.02;72.77
77749;BME280;66938;52.084;5.228;2023-04-29T06:52:33;102013.0;;;12.03;72.27
77749;BME280;66938;52.084;5.228;2023-04-29T06:55:45;102011.0;;;11.97;72.91
77749;BME280;66938;52.084;5.228;2023-04-29T06:57:21;102013.0;;;12.0;72.77
77749;BME280;66938;52.084;5.228;2023-04-29T06:58:57;102019.0;;;12.04;72.19
77749;BME280;66938;52.084;5.228;2023-04-29T07:02:10;102023.0;;;12.07;72.11
77749;BME280;66938;52.084;5.228;2023-04-29T07:03:46;102021.0;;;12.08;71.59
77749;BME280;66938;52.084;5.228;2023-04-29T07:05:22;102021.0;;;12.03;71.41
77749;BME280;66938;52.084;5.228;2023-04-29T07:08:34;102026.0;;;12.07;71.98
77749;BME280;66938;52.084;5.228;2023-04-29T07:10:10;102030.0;;;12.07;71.86
77749;BME280;66938;52.084;5.228;2023-04-29T07:11:46;102031.0;;;12.09;71.67
77749;BME280;66938;52.084;5.228;2023-04-29T07:13:23;102041.0;;;12.1;70.83
77749;BME280;66938;52.084;5.228;2023-04-29T07:16:36;102046.0;;;12.06;70.95
77749;BME280;66938;52.084;5.228;2023-04-29T07:18:12;102055.0;;;12.05;71.02
77749;BME280;66938;52.084;5.228;2023-04-29T07:19:48;102058.0;;;12.14;70.92
77749;BME280;66938;52.084;5.228;2023-04-29T07:23:01;102061.0;;;12.05;71.44
77749;BME280;66938;52.084;5.228;2023-04-29T07:24:38;102060.0;;;12.17;70.72
77749;BME280;66938;52.084;5.228;2023-04-29T07:26:15;102060.0;;;12.21;71.2
77749;BME280;66938;52.084;5.228;2023-04-29T07:29:28;102059.0;;;12.26;70.61
77749;BME280;66938;52.084;5.228;2023-04-29T07:31:04;102062.0;;;12.32;71.98
77749;BME280;66938;52.084;5.228;2023-04-29T07:32:40;102067.0;;;12.43;71.37
77749;BME280;66938;52.084;5.228;2023-04-29T07:34:16;102063.0;;;12.52;69.94
77749;BME280;66938;52.084;5.228;2023-04-29T07:37:29;102064.0;;;12.65;70.2
77749;BME280;66938;52.084;5.228;2023-04-29T07:39:06;102068.0;;;12.75;70.34
77749;BME280;66938;52.084;5.228;2023-04-29T07:40:42;102066.0;;;12.87;69.91
77749;BME280;66938;52.084;5.228;2023-04-29T07:43:54;102072.0;;;12.97;68.44
77749;BME280;66938;52.084;5.228;2023-04-29T07:45:30;102073.0;;;12.98;68.52
77749;BME280;66938;52.084;5.228;2023-04-29T07:47:07;102080.0;;;12.97;67.8
77749;BME280;66938;52.084;5.228;2023-04-29T07:50:19;102082.0;;;12.98;68.49
77749;BME280;66938;52.084;5.228;2023-04-29T07:51:56;102085.0;;;13.0;68.7
77749;BME280;66938;52.084;5.228;2023-04-29T07:53:32;102081.0;;;12.97;67.78
77749;BME280;66938;52.084;5.228;2023-04-29T07:56:44;102088.0;;;13.04;67.53
77749;BME280;66938;52.084;5.228;2023-04-29T07:58:20;102090.0;;;13.15;67.16
77749;BME280;66938;52.084;5.228;2023-04-29T07:59:56;102094.0;;;13.18;65.47
77749;BME280;66938;52.084;5.228;2023-04-29T08:01:32;102091.0;;;13.29;64.66
77749;BME280;66938;52.084;5.228;2023-04-29T08:04:45;102090.0;;;13.38;65.31
77749;BME280;66938;52.084;5.228;2023-04-29T08:06:21;102093.0;;;13.48;66.14
77749;BME280;66938;52.084;5.228;2023-04-29T08:07:57;102095.0;;;13.62;64.45
77749;BME280;66938;52.084;5.228;2023-04-29T08:11:14;102094.0;;;13.78;62.83
77749;BME280;66938;52.084;5.228;2023-04-29T08:12:51;102096.0;;;13.83;63.2
77749;BME280;66938;52.084;5.228;2023-04-29T08:14:27;102100.0;;;13.93;64.16
77749;BME280;66938;52.084;5.228;2023-04-29T08:17:40;102102.0;;;13.92;62.53
77749;BME280;66938;52.084;5.228;2023-04-29T08:19:16;102100.0;;;13.86;62.87
77749;BME280;66938;52.084;5.228;2023-04-29T08:20:52;102103.0;;;13.89;63.01
77749;BME280;66938;52.084;5.228;2023-04-29T08:22:28;102110.0;;;13.76;61.79
77749;BME280;66938;52.084;5.228;2023-04-29T08:27:17;102109.0;;;13.67;62.99
77749;BME280;66938;52.084;5.228;2023-04-29T08:28:53;102105.0;;;13.61;64.28
77749;BME280;66938;52.084;5.228;2023-04-29T08:32:06;102105.0;;;13.67;62.9
77749;BME280;66938;52.084;5.228;2023-04-29T08:33:42;102105.0;;;13.74;64.28
77749;BME280;66938;52.084;5.228;2023-04-29T08:35:18;102105.0;;;13.9;64.2
77749;BME280;66938;52.084;5.228;2023-04-29T08:38:32;102107.0;;;14.07;62.95
77749;BME280;66938;52.084;5.228;2023-04-29T08:40:09;102105.0;;;14.16;62.76
77749;BME280;66938;52.084;5.228;2023-04-29T08:41:45;102101.0;;;14.19;62.67
77749;BME280;66938;52.084;5.228;2023-04-29T08:43:22;102107.0;;;14.1;61.81
77749;BME280;66938;52.084;5.228;2023-04-29T08:46:37;102106.0;;;14.14;60.9
77749;BME280;66938;52.084;5.228;2023-04-29T08:48:15;102110.0;;;14.14;61.99
77749;BME280;66938;52.084;5.228;2023-04-29T08:49:52;102112.0;;;14.1;62.03
77749;BME280;66938;52.084;5.228;2023-04-29T08:53:04;102121.0;;;14.14;62.15
77749;BME280;66938;52.084;5.228;2023-04-29T08:54:40;102121.0;;;14.03;61.97
77749;BME280;66938;52.084;5.228;2023-04-29T08:56:17;102119.0;;;14.03;62.96
77749;BME280;66938;52.084;5.228;2023-04-29T08:59:31;102120.0;;;14.11;63.49
77749;BME280;66938;52.084;5.228;2023-04-29T09:01:08;102117.0;;;14.27;62.96
77749;BME280;66938;52.084;5.228;2023-04-29T09:02:48;102120.0;;;14.32;62.76
77749;BME280;66938;52.084;5.228;2023-04-29T09:04:36;102125.0;;;14.22;59.75
77749;BME280;66938;52.084;5.228;2023-04-29T09:07:53;102128.0;;;14.21;60.71
77749;BME280;66938;52.084;5.228;2023-04-29T09:09:32;102130.0;;;14.15;61.65
77749;BME280;66938;52.084;5.228;2023-04-29T09:11:09;102130.0;;;14.11;60.83
77749;BME280;66938;52.084;5.228;2023-04-29T09:12:46;102127.0;;;14.04;60.89
77749;BME280;66938;52.084;5.228;2023-04-29T09:15:58;102132.0;;;14.08;61.11
77749;BME280;66938;52.084;5.228;2023-04-29T09:17:39;102132.0;;;14.1;61.74
77749;BME280;66938;52.084;5.228;2023-04-29T09:19:28;102134.0;;;14.2;61.83
77749;BME280;66938;52.084;5.228;2023-04-29T09:21:11;102138.0;;;14.3;61.32
77749;BME280;66938;52.084;5.228;2023-04-29T09:24:28;102132.0;;;14.41;61.19
77749;BME280;66938;52.084;5.228;2023-04-29T09:26:05;102140.0;;;14.66;62.06
77749;BME280;66938;52.084;5.228;2023-04-29T09:27:41;102137.0;;;14.86;58.09
77749;BME280;66938;52.084;5.228;2023-04-29T09:30:53;102141.0;;;14.96;58.2
77749;BME280;66938;52.084;5.228;2023-04-29T09:32:29;102142.0;;;14.95;56.72
77749;BME280;66938;52.084;5.228;2023-04-29T09:34:05;102141.0;;;14.85;57.78
77749;BME280;66938;52.084;5.228;2023-04-29T09:35:42;102146.0;;;14.79;57.75
77749;BME280;66938;52.084;5.228;2023-04-29T09:39:00;102141.0;;;14.74;57.89
77749;BME280;66938;52.084;5.228;2023-04-29T09:40:36;102146.0;;;14.74;58.93
77749;BME280;66938;52.084;5.228;2023-04-29T09:42:13;102149.0;;;14.77;57.5
77749;BME280;66938;52.084;5.228;2023-04-29T09:45:39;102155.0;;;14.88;57.74
77749;BME280;66938;52.084;5.228;2023-04-29T09:47:16;102155.0;;;14.89;56.45
77749;BME280;66938;52.084;5.228;2023-04-29T09:48:52;102151.0;;;14.89;57.87
77749;BME280;66938;52.084;5.228;2023-04-29T09:50:28;102153.0;;;15.0;57.43
77749;BME280;66938;52.084;5.228;2023-04-29T09:53:42;102151.0;;;15.0;55.36
77749;BME280;66938;52.084;5.228;2023-04-29T09:55:18;102149.0;;;15.15;57.43
77749;BME280;66938;52.084;5.228;2023-04-29T09:56:56;102148.0;;;15.3;56.77
77749;BME280;66938;52.084;5.228;2023-04-29T10:00:11;102144.0;;;15.42;56.86
77749;BME280;66938;52.084;5.228;2023-04-29T10:01:48;102152.0;;;15.55;56.34
77749;BME280;66938;52.084;5.228;2023-04-29T10:03:27;102152.0;;;15.65;53.49
77749;BME280;66938;52.084;5.228;2023-04-29T10:05:07;102152.0;;;15.74;53.81
77749;BME280;66938;52.084;5.228;2023-04-29T10:08:23;102153.0;;;15.73;54.21
77749;BME280;66938;52.084;5.228;2023-04-29T10:10:03;102152.0;;;15.74;54.69
77749;BME280;66938;52.084;5.228;2023-04-29T10:11:41;102147.0;;;15.87;53.35
77749;BME280;66938;52.084;5.228;2023-04-29T10:13:18;102146.0;;;15.81;51.87
77749;BME280;66938;52.084;5.228;2023-04-29T10:16:45;102149.0;;;15.9;52.38
77749;BME280;66938;52.084;5.228;2023-04-29T10:18:25;102155.0;;;15.97;55.17
77749;BME280;66938;52.084;5.228;2023-04-29T10:20:07;102157.0;;;16.0;54.36
77749;BME280;66938;52.084;5.228;2023-04-29T10:21:47;102149.0;;;15.89;52.49
77749;BME280;66938;52.084;5.228;2023-04-29T10:25:04;102151.0;;;16.06;54.07
77749;BME280;66938;52.084;5.228;2023-04-29T10:26:42;102155.0;;;16.18;53.42
77749;BME280;66938;52.084;5.228;2023-04-29T10:28:19;102156.0;;;16.27;52.29
77749;BME280;66938;52.084;5.228;2023-04-29T10:29:59;102158.0;;;16.16;51.0
77749;BME280;66938;52.084;5.228;2023-04-29T10:33:16;102161.0;;;16.25;52.02
77749;BME280;66938;52.084;5.228;2023-04-29T10:34:54;102158.0;;;16.32;51.93
77749;BME280;66938;52.084;5.228;2023-04-29T10:36:32;102162.0;;;16.4;52.53
77749;BME280;66938;52.084;5.228;2023-04-29T10:40:00;102159.0;;;16.52;51.1
77749;BME280;66938;52.084;5.228;2023-04-29T10:41:47;102162.0;;;16.53;49.15
77749;BME280;66938;52.084;5.228;2023-04-29T10:43:26;102158.0;;;16.75;51.47
77749;BME280;66938;52.084;5.228;2023-04-29T10:45:34;102160.0;;;16.91;50.56
77749;BME280;66938;52.084;5.228;2023-04-29T10:47:18;102165.0;;;17.02;51.13
77749;BME280;66938;52.084;5.228;2023-04-29T10:48:57;102166.0;;;17.14;48.44
77749;BME280;66938;52.084;5.228;2023-04-29T10:52:50;102163.0;;;17.3;48.49
77749;BME280;66938;52.084;5.228;2023-04-29T10:54:27;102162.0;;;17.37;48.0
77749;BME280;66938;52.084;5.228;2023-04-29T10:56:07;102158.0;;;17.54;49.16
77749;BME280;66938;52.084;5.228;2023-04-29T10:57:44;102151.0;;;17.7;46.04
77749;BME280;66938;52.084;5.228;2023-04-29T10:59:21;102151.0;;;17.82;46.71
77749;BME280;66938;52.084;5.228;2023-04-29T11:03:44;102157.0;;;17.84;48.03
77749;BME280;66938;52.084;5.228;2023-04-29T11:05:29;102157.0;;;17.91;47.39
77749;BME280;66938;52.084;5.228;2023-04-29T11:07:06;102159.0;;;17.95;47.58
77749;BME280;66938;52.084;5.228;2023-04-29T11:08:42;102163.0;;;17.91;46.64
77749;BME280;66938;52.084;5.228;2023-04-29T11:10:18;102155.0;;;17.93;46.48